createdAt,value
2022-10-26T00:00:53.136Z,66.94
2022-10-26T00:03:19.736Z,66.62
2022-10-26T00:05:46.360Z,66.26
2022-10-26T00:08:12.949Z,66.46
2022-10-26T00:10:39.561Z,66.17
2022-10-26T00:13:06.205Z,66.10
2022-10-26T00:15:32.821Z,66.41
2022-10-26T00:17:59.466Z,66.91
2022-10-26T00:20:26.123Z,66.59
2022-10-26T00:22:52.745Z,67.46
2022-10-26T00:25:19.329Z,66.78
2022-10-26T00:27:46.106Z,67.23
2022-10-26T00:30:12.886Z,66.85
2022-10-26T00:35:17.110Z,66.60
2022-10-26T00:37:51.045Z,66.34
2022-10-26T00:40:17.917Z,65.97
2022-10-26T00:42:44.595Z,66.91
2022-10-26T00:45:11.247Z,67.43
2022-10-26T00:47:37.906Z,67.09
2022-10-26T00:50:04.524Z,66.62
2022-10-26T00:52:31.143Z,67.07
2022-10-26T00:54:57.742Z,67.43
2022-10-26T00:57:24.915Z,67.28
2022-10-26T00:59:51.560Z,67.21
2022-10-26T01:02:18.170Z,67.73
2022-10-26T01:04:44.772Z,67.54
2022-10-26T01:07:11.372Z,67.12
2022-10-26T01:09:38.015Z,67.29
2022-10-26T01:12:04.678Z,66.34
2022-10-26T01:14:31.332Z,66.63
2022-10-26T01:16:58.000Z,66.11
2022-10-26T01:19:26.535Z,66.19
2022-10-26T01:21:53.194Z,66.58
2022-10-26T01:24:19.815Z,66.26
2022-10-26T01:26:46.591Z,66.61
2022-10-26T01:29:13.271Z,66.02
2022-10-26T01:31:39.861Z,66.20
2022-10-26T01:34:06.482Z,66.38
2022-10-26T01:39:04.592Z,65.70
2022-10-26T01:41:31.217Z,66.16
2022-10-26T01:43:57.814Z,66.17
2022-10-26T01:46:24.455Z,66.32
2022-10-26T01:48:51.084Z,66.00
2022-10-26T01:51:17.703Z,66.19
2022-10-26T01:53:44.334Z,66.16
2022-10-26T01:56:10.945Z,67.40
2022-10-26T01:58:37.594Z,67.44
2022-10-26T02:01:04.242Z,67.24
2022-10-26T02:03:30.969Z,67.52
2022-10-26T02:05:57.605Z,67.42
2022-10-26T02:08:24.263Z,67.14
2022-10-26T02:10:50.855Z,66.63
2022-10-26T02:13:17.491Z,66.58
2022-10-26T02:15:44.090Z,66.58
2022-10-26T02:18:10.719Z,66.54
2022-10-26T02:20:37.326Z,65.76
2022-10-26T02:23:03.912Z,65.87
2022-10-26T02:25:30.544Z,66.14
2022-10-26T02:27:57.130Z,66.00
2022-10-26T02:30:23.750Z,65.89
2022-10-26T02:32:50.377Z,66.16
2022-10-26T02:35:17.008Z,66.48
2022-10-26T02:37:43.621Z,67.66
2022-10-26T02:40:10.243Z,67.25
2022-10-26T02:42:36.860Z,67.91
2022-10-26T02:45:03.455Z,67.24
2022-10-26T02:47:30.048Z,67.35
2022-10-26T02:49:56.662Z,66.82
2022-10-26T02:52:23.285Z,66.69
2022-10-26T02:54:49.876Z,66.65
2022-10-26T02:57:16.489Z,66.26
2022-10-26T02:59:43.124Z,66.33
2022-10-26T03:02:09.723Z,68.19
2022-10-26T03:04:36.347Z,67.90
2022-10-26T03:07:02.953Z,67.32
2022-10-26T03:09:29.574Z,68.04
2022-10-26T03:11:56.193Z,68.14
2022-10-26T03:14:22.770Z,68.59
2022-10-26T03:16:49.368Z,68.48
2022-10-26T03:19:15.989Z,67.89
2022-10-26T03:21:42.602Z,67.80
2022-10-26T03:24:09.188Z,67.53
2022-10-26T03:26:35.810Z,67.36
2022-10-26T03:29:02.398Z,67.74
2022-10-26T03:31:29.021Z,67.53
2022-10-26T03:33:55.653Z,67.61
2022-10-26T03:36:22.266Z,67.66
2022-10-26T03:38:48.852Z,67.80
2022-10-26T03:41:15.491Z,67.28
2022-10-26T03:43:42.113Z,66.86
2022-10-26T03:46:09.410Z,66.54
2022-10-26T03:48:36.057Z,66.67
2022-10-26T03:51:02.682Z,67.44
2022-10-26T03:53:29.283Z,67.47
2022-10-26T03:55:55.895Z,67.58
2022-10-26T03:58:22.595Z,68.02
2022-10-26T04:00:49.315Z,67.54
2022-10-26T04:03:15.991Z,67.46
2022-10-26T04:05:42.617Z,67.56
2022-10-26T04:08:09.231Z,67.65
2022-10-26T04:10:35.827Z,67.61
2022-10-26T04:13:02.448Z,68.04
2022-10-26T04:15:29.241Z,67.36
2022-10-26T04:17:55.968Z,67.18
2022-10-26T04:20:22.591Z,66.69
2022-10-26T04:22:49.213Z,66.13
2022-10-26T04:25:15.822Z,66.48
2022-10-26T04:27:42.436Z,66.13
2022-10-26T04:30:09.036Z,66.82
2022-10-26T04:32:35.686Z,66.76
2022-10-26T04:35:02.303Z,66.51
2022-10-26T04:37:28.899Z,66.03
2022-10-26T04:39:55.554Z,66.10
2022-10-26T04:42:22.199Z,66.20
2022-10-26T04:44:48.805Z,66.25
2022-10-26T04:47:15.417Z,66.27
2022-10-26T04:49:42.014Z,66.04
2022-10-26T04:52:08.632Z,66.15
2022-10-26T04:54:35.223Z,66.02
2022-10-26T04:57:01.843Z,65.89
2022-10-26T04:59:28.462Z,66.13
2022-10-26T05:01:55.136Z,66.32
2022-10-26T05:04:21.881Z,65.73
2022-10-26T05:06:48.469Z,65.93
2022-10-26T05:09:15.124Z,65.86
2022-10-26T05:11:41.763Z,66.28
2022-10-26T05:14:08.354Z,65.89
2022-10-26T05:16:34.999Z,66.84
2022-10-26T05:19:01.620Z,67.34
2022-10-26T05:21:28.259Z,68.59
2022-10-26T05:23:54.874Z,69.79
2022-10-26T05:26:21.478Z,70.14
2022-10-26T05:28:48.085Z,69.73
2022-10-26T05:31:14.674Z,69.67
2022-10-26T05:33:41.327Z,69.26
2022-10-26T05:36:07.980Z,69.85
2022-10-26T05:38:34.665Z,70.56
2022-10-26T05:41:01.326Z,70.12
2022-10-26T05:43:27.968Z,70.54
2022-10-26T05:45:54.568Z,70.49
2022-10-26T05:48:21.184Z,69.80
2022-10-26T05:50:47.782Z,69.41
2022-10-26T05:53:14.401Z,69.37
2022-10-26T05:55:41.574Z,69.65
2022-10-26T05:58:08.205Z,70.17
2022-10-26T06:00:35.009Z,69.60
2022-10-26T06:03:01.634Z,69.14
2022-10-26T06:05:28.255Z,68.60
2022-10-26T06:07:54.844Z,68.36
2022-10-26T06:10:21.458Z,67.94
2022-10-26T06:12:48.400Z,68.79
2022-10-26T06:15:15.306Z,69.01
2022-10-26T06:17:42.106Z,68.56
2022-10-26T06:20:08.830Z,68.07
2022-10-26T06:22:35.482Z,67.71
2022-10-26T06:25:02.103Z,67.59
2022-10-26T06:27:28.701Z,68.17
2022-10-26T06:29:55.318Z,68.45
2022-10-26T06:32:21.923Z,68.49
2022-10-26T06:34:48.599Z,68.16
2022-10-26T06:37:15.228Z,67.86
2022-10-26T06:39:41.839Z,67.91
2022-10-26T06:42:08.488Z,67.66
2022-10-26T06:44:35.108Z,67.77
2022-10-26T06:47:01.743Z,67.29
2022-10-26T06:49:28.366Z,67.71
2022-10-26T06:51:55.019Z,67.66
2022-10-26T06:54:21.608Z,67.41
2022-10-26T06:56:48.288Z,67.63
2022-10-26T06:59:14.894Z,67.71
2022-10-26T07:01:41.617Z,67.66
2022-10-26T07:04:08.327Z,67.49
2022-10-26T07:06:36.900Z,67.54
2022-10-26T07:09:05.815Z,67.36
2022-10-26T07:11:32.520Z,66.80
2022-10-26T07:13:59.148Z,67.33
2022-10-26T07:16:25.749Z,67.00
2022-10-26T07:18:52.425Z,68.07
2022-10-26T07:21:19.036Z,68.14
2022-10-26T07:23:45.620Z,67.12
2022-10-26T07:26:12.278Z,66.79
2022-10-26T07:28:38.871Z,66.13
2022-10-26T07:31:05.521Z,66.79
2022-10-26T07:33:32.148Z,66.60
2022-10-26T07:35:58.772Z,66.29
2022-10-26T07:38:25.614Z,65.71
2022-10-26T07:40:52.206Z,65.96
2022-10-26T07:43:18.805Z,65.79
2022-10-26T07:45:45.427Z,66.08
2022-10-26T07:48:12.068Z,66.69
2022-10-26T07:50:38.685Z,67.43
2022-10-26T07:53:05.305Z,66.41
2022-10-26T07:55:31.898Z,66.31
2022-10-26T07:57:58.687Z,66.08
2022-10-26T08:00:25.438Z,64.83
2022-10-26T08:02:52.090Z,63.88
2022-10-26T08:05:18.727Z,64.59
2022-10-26T08:07:45.659Z,64.69
2022-10-26T08:10:12.322Z,66.14
2022-10-26T08:12:38.916Z,65.19
2022-10-26T08:15:05.558Z,66.00
2022-10-26T08:17:32.194Z,66.17
2022-10-26T08:19:58.795Z,67.15
2022-10-26T08:22:25.414Z,66.02
2022-10-26T08:24:52.017Z,66.73
2022-10-26T08:27:18.652Z,65.17
2022-10-26T08:29:45.254Z,65.24
2022-10-26T08:32:11.891Z,65.88
2022-10-26T08:34:38.503Z,64.96
2022-10-26T08:37:05.130Z,63.60
2022-10-26T08:39:31.769Z,62.24
2022-10-26T08:41:58.416Z,62.20
2022-10-26T08:44:25.038Z,61.93
2022-10-26T08:46:51.641Z,64.04
2022-10-26T08:49:18.264Z,63.57
2022-10-26T08:51:44.866Z,63.95
2022-10-26T08:54:11.500Z,64.54
2022-10-26T08:56:38.089Z,63.67
2022-10-26T08:59:04.717Z,64.07
2022-10-26T09:01:31.380Z,62.40
2022-10-26T09:03:58.075Z,61.94
2022-10-26T09:06:24.709Z,64.15
2022-10-26T09:08:51.342Z,65.58
2022-10-26T09:11:17.983Z,63.20
2022-10-26T09:13:44.623Z,63.46
2022-10-26T09:16:11.224Z,62.89
2022-10-26T09:18:37.939Z,63.38
2022-10-26T09:21:04.590Z,62.89
2022-10-26T09:23:31.177Z,60.30
2022-10-26T09:25:57.846Z,59.33
2022-10-26T09:28:24.434Z,59.03
2022-10-26T09:30:51.107Z,58.75
2022-10-26T09:33:17.742Z,58.45
2022-10-26T09:35:44.367Z,58.13
2022-10-26T09:38:10.968Z,57.64
2022-10-26T09:40:37.588Z,57.08
2022-10-26T09:43:04.211Z,58.55
2022-10-26T09:45:30.857Z,58.75
2022-10-26T09:47:57.463Z,57.85
2022-10-26T09:50:24.090Z,57.08
2022-10-26T09:52:51.008Z,57.24
2022-10-26T09:55:17.858Z,56.88
2022-10-26T09:57:44.510Z,57.28
2022-10-26T10:00:11.128Z,56.04
2022-10-26T10:02:37.798Z,56.27
2022-10-26T10:05:04.494Z,56.26
2022-10-26T10:07:31.116Z,57.04
2022-10-26T10:09:57.728Z,56.56
2022-10-26T10:12:24.327Z,55.82
2022-10-26T10:14:50.964Z,56.03
2022-10-26T10:19:49.043Z,55.06
2022-10-26T10:22:15.661Z,54.52
2022-10-26T10:24:42.419Z,52.66
2022-10-26T10:27:09.027Z,52.52
2022-10-26T10:29:35.641Z,52.12
2022-10-26T10:32:02.315Z,50.82
2022-10-26T10:34:28.903Z,51.46
2022-10-26T10:36:55.525Z,50.58
2022-10-26T10:39:22.171Z,51.11
2022-10-26T10:41:48.863Z,51.08
2022-10-26T10:44:15.548Z,50.35
2022-10-26T10:46:42.142Z,50.17
2022-10-26T10:49:08.786Z,49.54
2022-10-26T10:51:35.407Z,51.70
2022-10-26T10:54:02.033Z,49.45
2022-10-26T10:56:28.659Z,49.29
2022-10-26T10:58:55.262Z,50.50
2022-10-26T11:01:22.179Z,51.08
2022-10-26T11:03:48.850Z,48.04
2022-10-26T11:06:15.503Z,48.47
2022-10-26T11:08:42.124Z,50.11
2022-10-26T11:11:08.724Z,50.44
2022-10-26T11:13:35.362Z,49.55
2022-10-26T11:16:02.011Z,47.25
2022-10-26T11:18:28.602Z,46.47
2022-10-26T11:20:55.280Z,47.23
2022-10-26T11:23:21.897Z,47.83
2022-10-26T11:25:48.519Z,48.63
2022-10-26T11:28:15.137Z,45.48
2022-10-26T11:30:41.776Z,47.94
2022-10-26T11:33:08.392Z,47.19
2022-10-26T11:35:35.004Z,45.33
2022-10-26T11:38:01.658Z,47.29
2022-10-26T11:40:28.302Z,48.13
2022-10-26T11:42:54.940Z,47.82
2022-10-26T11:45:21.536Z,46.49
2022-10-26T11:47:48.507Z,45.41
2022-10-26T11:50:17.399Z,48.09
2022-10-26T11:52:44.391Z,46.78
2022-10-26T11:55:11.007Z,46.86
2022-10-26T11:57:37.603Z,45.99
2022-10-26T12:00:04.249Z,46.17
2022-10-26T12:02:30.868Z,43.70
2022-10-26T12:04:57.796Z,43.64
2022-10-26T12:07:24.385Z,44.10
2022-10-26T12:09:51.005Z,43.74
2022-10-26T12:12:17.643Z,43.17
2022-10-26T12:14:44.259Z,43.93
2022-10-26T12:17:10.870Z,43.59
2022-10-26T12:19:37.485Z,43.94
2022-10-26T12:22:04.094Z,43.25
2022-10-26T12:24:30.732Z,43.54
2022-10-26T12:26:57.351Z,43.35
2022-10-26T12:29:23.944Z,43.03
2022-10-26T12:31:50.567Z,43.22
2022-10-26T12:34:17.169Z,42.96
2022-10-26T12:36:43.781Z,43.99
2022-10-26T12:39:10.383Z,44.30
2022-10-26T12:44:21.240Z,44.15
2022-10-26T12:46:47.860Z,44.68
2022-10-26T12:49:14.496Z,47.16
2022-10-26T12:51:41.106Z,45.97
2022-10-26T12:54:07.726Z,46.26
2022-10-26T12:56:34.326Z,45.81
2022-10-26T12:59:04.478Z,46.47
2022-10-26T13:01:31.657Z,46.97
2022-10-26T13:03:58.473Z,47.60
2022-10-26T13:06:25.085Z,47.15
2022-10-26T13:08:56.239Z,47.18
2022-10-26T13:11:25.583Z,47.18
2022-10-26T13:13:52.193Z,47.50
2022-10-26T13:16:18.812Z,47.28
2022-10-26T13:18:45.428Z,47.12
2022-10-26T13:21:12.053Z,48.53
2022-10-26T13:23:38.675Z,50.21
2022-10-26T13:26:05.266Z,50.77
2022-10-26T13:28:31.873Z,50.58
2022-10-26T13:30:58.458Z,49.76
2022-10-26T13:33:25.088Z,49.55
2022-10-26T13:35:51.707Z,48.65
2022-10-26T13:38:18.323Z,48.74
2022-10-26T13:40:44.951Z,50.50
2022-10-26T13:43:11.613Z,50.82
2022-10-26T13:45:38.211Z,51.10
2022-10-26T13:48:04.837Z,50.76
2022-10-26T13:50:32.211Z,49.88
2022-10-26T13:52:58.941Z,50.25
2022-10-26T13:55:25.580Z,49.92
2022-10-26T13:57:52.181Z,50.02
2022-10-26T14:00:18.814Z,51.31
2022-10-26T14:02:45.469Z,51.11
2022-10-26T14:05:12.085Z,51.71
2022-10-26T14:07:38.704Z,50.95
2022-10-26T14:10:05.483Z,51.23
2022-10-26T14:12:32.155Z,51.22
2022-10-26T14:14:58.779Z,51.33
2022-10-26T14:17:25.412Z,50.73
2022-10-26T14:19:52.001Z,51.21
2022-10-26T14:22:22.908Z,51.18
2022-10-26T14:24:49.985Z,51.88
2022-10-26T14:27:16.647Z,52.50
2022-10-26T14:29:46.911Z,52.72
2022-10-26T14:32:16.602Z,51.93
2022-10-26T14:34:43.318Z,51.41
2022-10-26T14:37:09.913Z,51.50
2022-10-26T14:39:36.540Z,51.59
2022-10-26T14:42:03.152Z,51.04
2022-10-26T14:44:29.761Z,51.25
2022-10-26T14:46:56.348Z,50.89
2022-10-26T14:49:23.174Z,50.66
2022-10-26T14:51:49.779Z,49.63
2022-10-26T14:54:16.455Z,49.34
2022-10-26T14:56:43.099Z,50.27
2022-10-26T14:59:09.703Z,50.26
2022-10-26T15:01:36.864Z,50.31
2022-10-26T15:04:03.636Z,50.40
2022-10-26T15:06:30.257Z,50.88
2022-10-26T15:08:57.527Z,51.30
2022-10-26T15:11:24.228Z,51.57
2022-10-26T15:13:50.824Z,51.53
2022-10-26T15:16:17.466Z,52.38
2022-10-26T15:18:44.073Z,52.25
2022-10-26T15:21:10.736Z,52.39
2022-10-26T15:23:37.357Z,52.52
2022-10-26T15:26:03.992Z,53.13
2022-10-26T15:28:30.615Z,53.56
2022-10-26T15:31:00.556Z,53.96
2022-10-26T15:33:27.674Z,53.95
2022-10-26T15:35:54.291Z,54.51
2022-10-26T15:38:20.909Z,54.53
2022-10-26T15:40:47.518Z,54.49
2022-10-26T15:43:14.150Z,55.30
2022-10-26T15:45:40.806Z,55.31
2022-10-26T15:48:07.449Z,55.54
2022-10-26T15:50:35.612Z,55.80
2022-10-26T15:53:04.449Z,56.56
2022-10-26T15:55:31.074Z,56.17
2022-10-26T15:57:57.707Z,56.31
2022-10-26T16:00:24.557Z,56.50
2022-10-26T16:02:51.158Z,56.32
2022-10-26T16:05:17.811Z,56.96
2022-10-26T16:07:44.519Z,57.37
2022-10-26T16:10:11.118Z,57.60
2022-10-26T16:12:38.479Z,57.44
2022-10-26T16:15:06.102Z,57.66
2022-10-26T16:17:33.139Z,58.00
2022-10-26T16:19:59.780Z,58.12
2022-10-26T16:22:26.405Z,58.89
2022-10-26T16:24:53.009Z,58.84
2022-10-26T16:27:19.687Z,58.58
2022-10-26T16:29:46.330Z,58.61
2022-10-26T16:32:12.943Z,58.75
2022-10-26T16:34:39.560Z,58.84
2022-10-26T16:37:06.158Z,59.15
2022-10-26T16:39:32.767Z,58.89
2022-10-26T16:41:59.384Z,59.00
2022-10-26T16:44:25.979Z,59.38
2022-10-26T16:46:52.606Z,59.99
2022-10-26T16:49:19.265Z,59.88
2022-10-26T16:51:45.926Z,59.80
2022-10-26T16:54:12.561Z,60.21
2022-10-26T16:56:39.175Z,60.70
2022-10-26T16:59:05.788Z,60.94
2022-10-26T17:01:32.568Z,60.70
2022-10-26T17:03:59.351Z,60.85
2022-10-26T17:06:25.991Z,61.32
2022-10-26T17:08:52.662Z,60.87
2022-10-26T17:11:19.262Z,60.87
2022-10-26T17:13:45.929Z,60.88
2022-10-26T17:16:12.546Z,60.66
2022-10-26T17:18:39.158Z,61.24
2022-10-26T17:21:08.588Z,62.42
2022-10-26T17:23:35.196Z,62.46
2022-10-26T17:26:01.829Z,62.72
2022-10-26T17:28:28.469Z,62.66
2022-10-26T17:30:55.092Z,62.19
2022-10-26T17:33:21.751Z,62.61
2022-10-26T17:35:48.351Z,62.45
2022-10-26T17:38:14.950Z,62.77
2022-10-26T17:40:41.574Z,62.88
2022-10-26T17:43:08.195Z,63.17
2022-10-26T17:45:34.855Z,62.86
2022-10-26T17:48:01.457Z,62.95
2022-10-26T17:50:28.199Z,62.58
2022-10-26T17:52:54.807Z,62.83
2022-10-26T17:55:21.610Z,62.86
2022-10-26T17:57:48.465Z,62.36
2022-10-26T18:00:15.281Z,62.61
2022-10-26T18:02:42.297Z,62.59
2022-10-26T18:05:09.222Z,62.28
2022-10-26T18:07:35.893Z,62.94
2022-10-26T18:10:14.066Z,62.93
2022-10-26T18:12:49.477Z,62.76
2022-10-26T18:15:16.351Z,62.83
2022-10-26T18:17:42.949Z,62.64
2022-10-26T18:20:09.596Z,62.68
2022-10-26T18:22:36.213Z,63.03
2022-10-26T18:25:02.850Z,63.90
2022-10-26T18:27:29.474Z,64.06
2022-10-26T18:29:56.099Z,63.79
2022-10-26T18:32:22.686Z,64.06
2022-10-26T18:34:49.355Z,64.54
2022-10-26T18:37:16.028Z,64.59
2022-10-26T18:39:42.620Z,64.51
2022-10-26T18:42:09.271Z,64.58
2022-10-26T18:44:35.875Z,64.26
2022-10-26T18:47:02.511Z,64.06
2022-10-26T18:49:29.162Z,64.69
2022-10-26T18:51:55.823Z,64.91
2022-10-26T18:54:22.452Z,64.26
2022-10-26T18:56:49.057Z,64.30
2022-10-26T18:59:15.704Z,64.24
2022-10-26T19:01:42.698Z,63.92
2022-10-26T19:04:09.576Z,64.58
2022-10-26T19:06:36.273Z,64.59
2022-10-26T19:09:02.977Z,63.92
2022-10-26T19:11:29.579Z,63.64
2022-10-26T19:13:56.231Z,63.32
2022-10-26T19:16:43.911Z,63.17
2022-10-26T19:19:09.515Z,63.47
2022-10-26T19:21:36.171Z,63.72
2022-10-26T19:24:03.163Z,63.78
2022-10-26T19:26:34.235Z,63.86
2022-10-26T19:29:01.950Z,63.42
2022-10-26T19:31:28.670Z,63.60
2022-10-26T19:33:55.317Z,63.64
2022-10-26T19:36:21.959Z,63.22
2022-10-26T19:38:48.569Z,63.71
2022-10-26T19:41:15.257Z,63.71
2022-10-26T19:43:41.867Z,63.21
2022-10-26T19:46:08.507Z,63.66
2022-10-26T19:48:35.234Z,63.50
2022-10-26T19:51:01.874Z,63.43
2022-10-26T19:53:28.515Z,63.23
2022-10-26T19:55:55.143Z,63.38
2022-10-26T19:58:21.817Z,63.55
2022-10-26T20:00:48.477Z,63.30
2022-10-26T20:03:15.190Z,63.35
2022-10-26T20:05:41.958Z,63.77
2022-10-26T20:08:08.585Z,64.05
2022-10-26T20:10:35.201Z,64.05
2022-10-26T20:13:01.834Z,64.01
2022-10-26T20:15:28.467Z,63.35
2022-10-26T20:17:55.095Z,63.67
2022-10-26T20:20:21.705Z,63.72
2022-10-26T20:22:48.924Z,63.56
2022-10-26T20:25:15.760Z,63.38
2022-10-26T20:27:42.360Z,63.44
2022-10-26T20:30:08.996Z,64.48
2022-10-26T20:32:35.612Z,64.73
2022-10-26T20:35:02.218Z,64.75
2022-10-26T20:37:28.852Z,63.98
2022-10-26T20:39:55.478Z,64.42
2022-10-26T20:42:22.098Z,65.16
2022-10-26T20:44:48.700Z,65.16
2022-10-26T20:47:15.368Z,65.63
2022-10-26T20:49:44.075Z,64.71
2022-10-26T20:52:25.498Z,64.66
2022-10-26T20:54:52.132Z,64.47
2022-10-26T20:57:18.761Z,63.92
2022-10-26T20:59:45.360Z,63.63
2022-10-26T21:02:12.004Z,63.78
2022-10-26T21:04:38.682Z,64.23
2022-10-26T21:07:05.273Z,64.43
2022-10-26T21:09:34.248Z,64.38
2022-10-26T21:12:03.510Z,64.64
2022-10-26T21:14:30.123Z,64.64
2022-10-26T21:16:56.720Z,64.84
2022-10-26T21:19:23.353Z,64.95
2022-10-26T21:21:50.015Z,64.72
2022-10-26T21:24:16.622Z,64.98
2022-10-26T21:26:43.236Z,64.80
2022-10-26T21:29:09.832Z,64.80
2022-10-26T21:31:36.454Z,64.74
2022-10-26T21:36:47.298Z,65.32
2022-10-26T21:39:13.911Z,64.84
2022-10-26T21:41:40.654Z,64.77
2022-10-26T21:44:09.142Z,64.64
2022-10-26T21:46:36.984Z,64.88
2022-10-26T21:49:03.605Z,64.87
2022-10-26T21:51:30.223Z,64.90
2022-10-26T21:53:56.827Z,64.94
2022-10-26T21:56:23.469Z,65.12
2022-10-26T21:58:50.053Z,64.65
2022-10-26T22:01:16.743Z,64.57
2022-10-26T22:03:43.432Z,64.37
2022-10-26T22:06:10.086Z,64.34
2022-10-26T22:08:37.101Z,64.40
2022-10-26T22:11:03.698Z,64.51
2022-10-26T22:13:30.309Z,64.70
2022-10-26T22:15:56.933Z,64.63
2022-10-26T22:18:23.514Z,64.11
2022-10-26T22:20:50.123Z,63.93
2022-10-26T22:23:16.742Z,64.49
2022-10-26T22:25:43.374Z,64.04
2022-10-26T22:28:09.989Z,64.29
2022-10-26T22:30:36.609Z,64.30
2022-10-26T22:33:03.273Z,64.22
2022-10-26T22:35:30.193Z,64.47
2022-10-26T22:37:56.924Z,64.14
2022-10-26T22:40:23.553Z,64.40
2022-10-26T22:42:50.472Z,64.11
2022-10-26T22:45:17.228Z,64.21
2022-10-26T22:47:43.867Z,64.32
2022-10-26T22:50:10.477Z,64.89
2022-10-26T22:52:37.111Z,64.30
2022-10-26T22:55:03.785Z,64.66
2022-10-26T22:57:30.723Z,64.38
2022-10-26T22:59:57.331Z,64.81
2022-10-26T23:02:23.958Z,65.17
2022-10-26T23:04:50.602Z,65.07
2022-10-26T23:07:17.198Z,65.52
2022-10-26T23:09:43.787Z,65.27
2022-10-26T23:12:10.420Z,65.11
2022-10-26T23:14:37.035Z,64.99
2022-10-26T23:17:03.638Z,65.06
2022-10-26T23:19:30.297Z,64.86
2022-10-26T23:21:56.945Z,64.85
2022-10-26T23:24:23.618Z,65.91
2022-10-26T23:26:50.274Z,65.12
2022-10-26T23:29:16.931Z,65.32
2022-10-26T23:31:43.552Z,65.45
2022-10-26T23:34:10.148Z,65.67
2022-10-26T23:36:36.803Z,65.42
2022-10-26T23:39:03.397Z,64.74
2022-10-26T23:41:30.022Z,65.35
2022-10-26T23:43:56.616Z,65.21
2022-10-26T23:46:23.244Z,65.80
2022-10-26T23:48:49.891Z,65.56
2022-10-26T23:51:16.494Z,65.53
2022-10-26T23:53:43.120Z,65.49
2022-10-26T23:56:09.734Z,65.88
2022-10-26T23:58:36.348Z,66.43
